sensor_id;sensor_type;location;lat;lon;timestamp;P1;durP1;ratioP1;P2;durP2;ratioP2
80936;SDS011;70395;51.382;7.074;2023-08-01T00:02:11;1.87;;;1.10;;
80936;SDS011;70395;51.382;7.074;2023-08-01T00:04:37;2.20;;;1.60;;
80936;SDS011;70395;51.382;7.074;2023-08-01T00:07:03;2.90;;;1.63;;
80936;SDS011;70395;51.382;7.074;2023-08-01T00:09:29;1.40;;;1.30;;
80936;SDS011;70395;51.382;7.074;2023-08-01T00:11:54;1.70;;;1.40;;
80936;SDS011;70395;51.382;7.074;2023-08-01T00:14:20;1.80;;;1.43;;
80936;SDS011;70395;51.382;7.074;2023-08-01T00:16:49;1.93;;;1.67;;
80936;SDS011;70395;51.382;7.074;2023-08-01T00:19:16;3.07;;;1.70;;
80936;SDS011;70395;51.382;7.074;2023-08-01T00:21:41;2.30;;;1.87;;
80936;SDS011;70395;51.382;7.074;2023-08-01T00:24:07;3.37;;;2.00;;
80936;SDS011;70395;51.382;7.074;2023-08-01T00:26:33;2.87;;;1.90;;
80936;SDS011;70395;51.382;7.074;2023-08-01T00:29:00;3.03;;;1.50;;
80936;SDS011;70395;51.382;7.074;2023-08-01T00:31:26;2.80;;;1.77;;
80936;SDS011;70395;51.382;7.074;2023-08-01T00:33:52;3.90;;;1.60;;
80936;SDS011;70395;51.382;7.074;2023-08-01T00:36:17;2.00;;;1.27;;
80936;SDS011;70395;51.382;7.074;2023-08-01T00:38:43;1.50;;;0.90;;
80936;SDS011;70395;51.382;7.074;2023-08-01T00:41:09;1.33;;;0.90;;
80936;SDS011;70395;51.382;7.074;2023-08-01T00:43:35;1.47;;;0.80;;
80936;SDS011;70395;51.382;7.074;2023-08-01T00:46:03;1.73;;;0.73;;
80936;SDS011;70395;51.382;7.074;2023-08-01T00:48:31;1.00;;;0.70;;
80936;SDS011;70395;51.382;7.074;2023-08-01T00:50:57;0.77;;;0.60;;
80936;SDS011;70395;51.382;7.074;2023-08-01T00:53:29;1.33;;;0.87;;
80936;SDS011;70395;51.382;7.074;2023-08-01T00:55:56;1.70;;;0.97;;
80936;SDS011;70395;51.382;7.074;2023-08-01T00:58:23;1.10;;;0.80;;
80936;SDS011;70395;51.382;7.074;2023-08-01T01:00:50;1.67;;;0.77;;
80936;SDS011;70395;51.382;7.074;2023-08-01T01:03:16;1.03;;;0.70;;
80936;SDS011;70395;51.382;7.074;2023-08-01T01:05:46;1.47;;;0.80;;
80936;SDS011;70395;51.382;7.074;2023-08-01T01:08:20;1.10;;;0.70;;
80936;SDS011;70395;51.382;7.074;2023-08-01T01:10:46;1.13;;;0.70;;
80936;SDS011;70395;51.382;7.074;2023-08-01T01:13:12;1.10;;;0.70;;
80936;SDS011;70395;51.382;7.074;2023-08-01T01:15:38;1.33;;;1.07;;
80936;SDS011;70395;51.382;7.074;2023-08-01T01:18:04;1.57;;;1.30;;
80936;SDS011;70395;51.382;7.074;2023-08-01T01:20:36;1.83;;;1.63;;
80936;SDS011;70395;51.382;7.074;2023-08-01T01:23:05;1.73;;;1.33;;
80936;SDS011;70395;51.382;7.074;2023-08-01T01:25:34;2.30;;;2.10;;
80936;SDS011;70395;51.382;7.074;2023-08-01T01:28:03;2.20;;;2.00;;
80936;SDS011;70395;51.382;7.074;2023-08-01T01:30:31;4.30;;;3.13;;
80936;SDS011;70395;51.382;7.074;2023-08-01T01:32:59;3.50;;;2.70;;
80936;SDS011;70395;51.382;7.074;2023-08-01T01:35:29;5.70;;;3.73;;
80936;SDS011;70395;51.382;7.074;2023-08-01T01:37:55;3.77;;;3.20;;
80936;SDS011;70395;51.382;7.074;2023-08-01T01:40:23;3.50;;;2.97;;
80936;SDS011;70395;51.382;7.074;2023-08-01T01:42:49;5.40;;;4.30;;
80936;SDS011;70395;51.382;7.074;2023-08-01T01:45:15;4.33;;;3.80;;
80936;SDS011;70395;51.382;7.074;2023-08-01T01:47:41;4.40;;;4.00;;
80936;SDS011;70395;51.382;7.074;2023-08-01T01:50:06;4.00;;;3.60;;
80936;SDS011;70395;51.382;7.074;2023-08-01T01:52:33;3.80;;;3.50;;
80936;SDS011;70395;51.382;7.074;2023-08-01T01:54:59;4.40;;;3.27;;
80936;SDS011;70395;51.382;7.074;2023-08-01T01:57:25;2.90;;;2.60;;
80936;SDS011;70395;51.382;7.074;2023-08-01T01:59:50;2.13;;;1.90;;
80936;SDS011;70395;51.382;7.074;2023-08-01T02:02:16;2.50;;;2.20;;
80936;SDS011;70395;51.382;7.074;2023-08-01T02:04:42;1.93;;;1.73;;
80936;SDS011;70395;51.382;7.074;2023-08-01T02:07:11;2.03;;;1.90;;
80936;SDS011;70395;51.382;7.074;2023-08-01T02:09:36;1.90;;;1.70;;
80936;SDS011;70395;51.382;7.074;2023-08-01T02:12:02;2.00;;;1.83;;
80936;SDS011;70395;51.382;7.074;2023-08-01T02:14:29;1.80;;;1.70;;
80936;SDS011;70395;51.382;7.074;2023-08-01T02:16:55;2.17;;;1.80;;
80936;SDS011;70395;51.382;7.074;2023-08-01T02:19:21;2.43;;;1.70;;
80936;SDS011;70395;51.382;7.074;2023-08-01T02:21:46;2.30;;;2.00;;
80936;SDS011;70395;51.382;7.074;2023-08-01T02:24:12;4.70;;;2.40;;
80936;SDS011;70395;51.382;7.074;2023-08-01T02:26:38;3.53;;;2.00;;
80936;SDS011;70395;51.382;7.074;2023-08-01T02:29:04;2.77;;;2.23;;
80936;SDS011;70395;51.382;7.074;2023-08-01T02:31:29;2.10;;;1.90;;
80936;SDS011;70395;51.382;7.074;2023-08-01T02:33:55;3.27;;;2.10;;
80936;SDS011;70395;51.382;7.074;2023-08-01T02:36:21;2.50;;;2.30;;
80936;SDS011;70395;51.382;7.074;2023-08-01T02:38:47;3.50;;;2.43;;
80936;SDS011;70395;51.382;7.074;2023-08-01T02:41:13;7.23;;;2.40;;
80936;SDS011;70395;51.382;7.074;2023-08-01T02:43:38;3.50;;;2.50;;
80936;SDS011;70395;51.382;7.074;2023-08-01T02:46:04;3.60;;;2.80;;
80936;SDS011;70395;51.382;7.074;2023-08-01T02:48:30;3.37;;;2.90;;
80936;SDS011;70395;51.382;7.074;2023-08-01T02:50:57;6.40;;;3.70;;
80936;SDS011;70395;51.382;7.074;2023-08-01T02:53:23;4.70;;;3.80;;
80936;SDS011;70395;51.382;7.074;2023-08-01T02:55:49;8.40;;;5.77;;
80936;SDS011;70395;51.382;7.074;2023-08-01T02:58:15;5.80;;;4.60;;
80936;SDS011;70395;51.382;7.074;2023-08-01T03:00:41;6.80;;;5.57;;
80936;SDS011;70395;51.382;7.074;2023-08-01T03:03:06;5.97;;;5.23;;
80936;SDS011;70395;51.382;7.074;2023-08-01T03:05:35;8.53;;;5.83;;
80936;SDS011;70395;51.382;7.074;2023-08-01T03:08:02;7.73;;;6.20;;
80936;SDS011;70395;51.382;7.074;2023-08-01T03:10:29;8.20;;;5.93;;
80936;SDS011;70395;51.382;7.074;2023-08-01T03:12:55;8.10;;;6.97;;
80936;SDS011;70395;51.382;7.074;2023-08-01T03:15:21;7.80;;;6.63;;
80936;SDS011;70395;51.382;7.074;2023-08-01T03:17:47;9.53;;;6.87;;
80936;SDS011;70395;51.382;7.074;2023-08-01T03:20:13;8.00;;;7.20;;
80936;SDS011;70395;51.382;7.074;2023-08-01T03:22:38;10.63;;;8.00;;
80936;SDS011;70395;51.382;7.074;2023-08-01T03:25:06;10.13;;;7.93;;
80936;SDS011;70395;51.382;7.074;2023-08-01T03:27:36;10.17;;;8.20;;
80936;SDS011;70395;51.382;7.074;2023-08-01T03:30:02;10.73;;;9.37;;
80936;SDS011;70395;51.382;7.074;2023-08-01T03:32:29;11.10;;;9.90;;
80936;SDS011;70395;51.382;7.074;2023-08-01T03:34:55;10.20;;;8.90;;
80936;SDS011;70395;51.382;7.074;2023-08-01T03:37:21;9.00;;;8.10;;
80936;SDS011;70395;51.382;7.074;2023-08-01T03:39:47;13.90;;;10.13;;
80936;SDS011;70395;51.382;7.074;2023-08-01T03:42:13;9.90;;;8.90;;
80936;SDS011;70395;51.382;7.074;2023-08-01T03:44:38;10.60;;;9.60;;
80936;SDS011;70395;51.382;7.074;2023-08-01T03:47:04;11.47;;;9.37;;
80936;SDS011;70395;51.382;7.074;2023-08-01T03:49:31;12.00;;;8.77;;
80936;SDS011;70395;51.382;7.074;2023-08-01T03:51:57;12.23;;;9.90;;
80936;SDS011;70395;51.382;7.074;2023-08-01T03:54:23;12.00;;;9.77;;
80936;SDS011;70395;51.382;7.074;2023-08-01T03:56:49;12.30;;;9.57;;
80936;SDS011;70395;51.382;7.074;2023-08-01T03:59:15;12.07;;;8.90;;
80936;SDS011;70395;51.382;7.074;2023-08-01T04:01:41;12.27;;;9.57;;
80936;SDS011;70395;51.382;7.074;2023-08-01T04:04:08;10.80;;;9.67;;
80936;SDS011;70395;51.382;7.074;2023-08-01T04:06:34;10.67;;;9.57;;
80936;SDS011;70395;51.382;7.074;2023-08-01T04:09:00;10.07;;;9.03;;
80936;SDS011;70395;51.382;7.074;2023-08-01T04:11:26;12.73;;;10.43;;
80936;SDS011;70395;51.382;7.074;2023-08-01T04:13:52;12.73;;;11.40;;
80936;SDS011;70395;51.382;7.074;2023-08-01T04:16:19;13.27;;;11.20;;
80936;SDS011;70395;51.382;7.074;2023-08-01T04:18:45;14.13;;;12.30;;
80936;SDS011;70395;51.382;7.074;2023-08-01T04:21:12;14.90;;;11.37;;
80936;SDS011;70395;51.382;7.074;2023-08-01T04:23:40;13.90;;;11.93;;
80936;SDS011;70395;51.382;7.074;2023-08-01T04:26:06;13.03;;;11.00;;
80936;SDS011;70395;51.382;7.074;2023-08-01T04:28:32;13.80;;;12.03;;
80936;SDS011;70395;51.382;7.074;2023-08-01T04:30:59;19.37;;;12.57;;
80936;SDS011;70395;51.382;7.074;2023-08-01T04:33:25;14.90;;;12.57;;
80936;SDS011;70395;51.382;7.074;2023-08-01T04:35:51;14.20;;;10.67;;
80936;SDS011;70395;51.382;7.074;2023-08-01T04:38:17;12.33;;;11.03;;
80936;SDS011;70395;51.382;7.074;2023-08-01T04:40:43;14.60;;;12.60;;
80936;SDS011;70395;51.382;7.074;2023-08-01T04:43:09;15.17;;;12.83;;
80936;SDS011;70395;51.382;7.074;2023-08-01T04:45:35;13.90;;;11.67;;
80936;SDS011;70395;51.382;7.074;2023-08-01T04:48:01;15.20;;;12.67;;
80936;SDS011;70395;51.382;7.074;2023-08-01T04:50:28;15.37;;;11.63;;
80936;SDS011;70395;51.382;7.074;2023-08-01T04:52:54;14.90;;;12.40;;
80936;SDS011;70395;51.382;7.074;2023-08-01T04:55:19;16.30;;;13.33;;
80936;SDS011;70395;51.382;7.074;2023-08-01T04:57:45;21.33;;;12.97;;
80936;SDS011;70395;51.382;7.074;2023-08-01T05:00:11;13.50;;;12.10;;
80936;SDS011;70395;51.382;7.074;2023-08-01T05:02:37;21.30;;;13.00;;
80936;SDS011;70395;51.382;7.074;2023-08-01T05:05:03;17.43;;;12.20;;
80936;SDS011;70395;51.382;7.074;2023-08-01T05:07:30;16.90;;;12.40;;
80936;SDS011;70395;51.382;7.074;2023-08-01T05:09:55;14.43;;;12.83;;
80936;SDS011;70395;51.382;7.074;2023-08-01T05:12:21;17.37;;;12.60;;
80936;SDS011;70395;51.382;7.074;2023-08-01T05:14:47;17.10;;;13.87;;
80936;SDS011;70395;51.382;7.074;2023-08-01T05:17:13;18.20;;;14.20;;
80936;SDS011;70395;51.382;7.074;2023-08-01T05:19:39;21.53;;;13.40;;
80936;SDS011;70395;51.382;7.074;2023-08-01T05:22:04;18.90;;;14.67;;
80936;SDS011;70395;51.382;7.074;2023-08-01T05:24:31;20.10;;;14.40;;
80936;SDS011;70395;51.382;7.074;2023-08-01T05:26:57;20.17;;;15.03;;
80936;SDS011;70395;51.382;7.074;2023-08-01T05:29:22;18.47;;;16.50;;
80936;SDS011;70395;51.382;7.074;2023-08-01T05:31:48;17.07;;;14.67;;
80936;SDS011;70395;51.382;7.074;2023-08-01T05:34:14;19.67;;;15.70;;
80936;SDS011;70395;51.382;7.074;2023-08-01T05:36:40;21.20;;;14.20;;
80936;SDS011;70395;51.382;7.074;2023-08-01T05:39:05;18.43;;;14.90;;
80936;SDS011;70395;51.382;7.074;2023-08-01T05:41:32;18.37;;;14.47;;
80936;SDS011;70395;51.382;7.074;2023-08-01T05:43:58;18.30;;;14.60;;
80936;SDS011;70395;51.382;7.074;2023-08-01T05:46:24;21.50;;;15.07;;
80936;SDS011;70395;51.382;7.074;2023-08-01T05:48:49;16.77;;;12.90;;
80936;SDS011;70395;51.382;7.074;2023-08-01T05:51:15;20.03;;;14.90;;
80936;SDS011;70395;51.382;7.074;2023-08-01T05:53:41;20.30;;;15.67;;
80936;SDS011;70395;51.382;7.074;2023-08-01T05:56:07;18.37;;;14.70;;
80936;SDS011;70395;51.382;7.074;2023-08-01T05:58:32;17.60;;;13.63;;
80936;SDS011;70395;51.382;7.074;2023-08-01T06:00:58;19.73;;;14.23;;
80936;SDS011;70395;51.382;7.074;2023-08-01T06:03:24;19.37;;;13.60;;
80936;SDS011;70395;51.382;7.074;2023-08-01T06:05:50;15.50;;;13.13;;
80936;SDS011;70395;51.382;7.074;2023-08-01T06:08:16;20.20;;;14.80;;
80936;SDS011;70395;51.382;7.074;2023-08-01T06:10:42;21.87;;;14.77;;
80936;SDS011;70395;51.382;7.074;2023-08-01T06:13:08;16.53;;;14.60;;
80936;SDS011;70395;51.382;7.074;2023-08-01T06:15:33;16.30;;;14.57;;
80936;SDS011;70395;51.382;7.074;2023-08-01T06:17:59;17.53;;;14.43;;
80936;SDS011;70395;51.382;7.074;2023-08-01T06:20:27;17.53;;;13.67;;
80936;SDS011;70395;51.382;7.074;2023-08-01T06:22:53;16.20;;;12.93;;
80936;SDS011;70395;51.382;7.074;2023-08-01T06:25:18;17.00;;;13.67;;
80936;SDS011;70395;51.382;7.074;2023-08-01T06:27:44;16.90;;;13.63;;
80936;SDS011;70395;51.382;7.074;2023-08-01T06:30:10;19.13;;;13.43;;
80936;SDS011;70395;51.382;7.074;2023-08-01T06:32:36;15.80;;;13.40;;
80936;SDS011;70395;51.382;7.074;2023-08-01T06:35:02;18.30;;;12.90;;
80936;SDS011;70395;51.382;7.074;2023-08-01T06:37:28;17.10;;;13.63;;
80936;SDS011;70395;51.382;7.074;2023-08-01T06:39:54;14.33;;;11.90;;
80936;SDS011;70395;51.382;7.074;2023-08-01T06:42:22;16.07;;;13.00;;
80936;SDS011;70395;51.382;7.074;2023-08-01T06:44:47;16.33;;;11.60;;
80936;SDS011;70395;51.382;7.074;2023-08-01T06:47:13;15.87;;;12.77;;
80936;SDS011;70395;51.382;7.074;2023-08-01T06:49:39;17.77;;;11.77;;
80936;SDS011;70395;51.382;7.074;2023-08-01T06:52:05;15.23;;;11.13;;
80936;SDS011;70395;51.382;7.074;2023-08-01T06:54:31;15.20;;;10.83;;
80936;SDS011;70395;51.382;7.074;2023-08-01T06:56:57;14.20;;;11.03;;
80936;SDS011;70395;51.382;7.074;2023-08-01T06:59:24;12.10;;;9.37;;
80936;SDS011;70395;51.382;7.074;2023-08-01T07:01:50;12.47;;;8.50;;
80936;SDS011;70395;51.382;7.074;2023-08-01T07:04:16;11.53;;;10.10;;
80936;SDS011;70395;51.382;7.074;2023-08-01T07:06:42;13.80;;;9.97;;
80936;SDS011;70395;51.382;7.074;2023-08-01T07:09:08;13.13;;;9.63;;
80936;SDS011;70395;51.382;7.074;2023-08-01T07:11:35;12.83;;;10.27;;
80936;SDS011;70395;51.382;7.074;2023-08-01T07:14:01;11.37;;;10.17;;
80936;SDS011;70395;51.382;7.074;2023-08-01T07:16:27;8.60;;;7.80;;
80936;SDS011;70395;51.382;7.074;2023-08-01T07:18:52;9.20;;;8.00;;
80936;SDS011;70395;51.382;7.074;2023-08-01T07:21:20;14.77;;;8.90;;
80936;SDS011;70395;51.382;7.074;2023-08-01T07:23:46;10.50;;;7.77;;
80936;SDS011;70395;51.382;7.074;2023-08-01T07:26:13;12.60;;;7.87;;
80936;SDS011;70395;51.382;7.074;2023-08-01T07:28:39;15.07;;;8.40;;
80936;SDS011;70395;51.382;7.074;2023-08-01T07:31:06;11.67;;;8.00;;
80936;SDS011;70395;51.382;7.074;2023-08-01T07:33:33;16.47;;;8.53;;
80936;SDS011;70395;51.382;7.074;2023-08-01T07:35:59;13.10;;;8.00;;
80936;SDS011;70395;51.382;7.074;2023-08-01T07:38:25;9.17;;;7.40;;
80936;SDS011;70395;51.382;7.074;2023-08-01T07:41:01;10.60;;;7.10;;
80936;SDS011;70395;51.382;7.074;2023-08-01T07:43:29;10.53;;;7.40;;
80936;SDS011;70395;51.382;7.074;2023-08-01T07:45:56;13.20;;;8.47;;
80936;SDS011;70395;51.382;7.074;2023-08-01T07:48:22;11.43;;;7.77;;
80936;SDS011;70395;51.382;7.074;2023-08-01T07:50:48;9.10;;;7.47;;
80936;SDS011;70395;51.382;7.074;2023-08-01T07:53:14;10.07;;;7.43;;
80936;SDS011;70395;51.382;7.074;2023-08-01T07:55:40;11.23;;;7.77;;
80936;SDS011;70395;51.382;7.074;2023-08-01T07:58:06;13.03;;;8.60;;
80936;SDS011;70395;51.382;7.074;2023-08-01T08:00:32;13.27;;;8.03;;
80936;SDS011;70395;51.382;7.074;2023-08-01T08:03:00;8.43;;;7.57;;
80936;SDS011;70395;51.382;7.074;2023-08-01T08:05:26;9.73;;;7.57;;
80936;SDS011;70395;51.382;7.074;2023-08-01T08:07:52;12.50;;;7.27;;
80936;SDS011;70395;51.382;7.074;2023-08-01T08:10:17;10.30;;;7.67;;
80936;SDS011;70395;51.382;7.074;2023-08-01T08:12:43;10.57;;;7.83;;
80936;SDS011;70395;51.382;7.074;2023-08-01T08:15:09;10.80;;;8.20;;
80936;SDS011;70395;51.382;7.074;2023-08-01T08:17:35;11.80;;;7.80;;
80936;SDS011;70395;51.382;7.074;2023-08-01T08:20:02;8.93;;;7.40;;
80936;SDS011;70395;51.382;7.074;2023-08-01T08:22:28;9.73;;;7.80;;
80936;SDS011;70395;51.382;7.074;2023-08-01T08:24:54;11.33;;;7.33;;
80936;SDS011;70395;51.382;7.074;2023-08-01T08:27:20;8.77;;;7.33;;
80936;SDS011;70395;51.382;7.074;2023-08-01T08:29:45;7.83;;;7.03;;
80936;SDS011;70395;51.382;7.074;2023-08-01T08:32:11;11.00;;;7.47;;
80936;SDS011;70395;51.382;7.074;2023-08-01T08:34:37;11.83;;;7.60;;
80936;SDS011;70395;51.382;7.074;2023-08-01T08:37:04;11.20;;;7.83;;
80936;SDS011;70395;51.382;7.074;2023-08-01T08:39:30;11.53;;;7.03;;
80936;SDS011;70395;51.382;7.074;2023-08-01T08:41:56;8.87;;;7.17;;
80936;SDS011;70395;51.382;7.074;2023-08-01T08:44:22;9.80;;;6.97;;
80936;SDS011;70395;51.382;7.074;2023-08-01T08:46:54;10.50;;;6.97;;
80936;SDS011;70395;51.382;7.074;2023-08-01T08:49:27;9.10;;;7.60;;
80936;SDS011;70395;51.382;7.074;2023-08-01T08:51:54;10.83;;;7.23;;
80936;SDS011;70395;51.382;7.074;2023-08-01T08:54:20;7.83;;;6.33;;
80936;SDS011;70395;51.382;7.074;2023-08-01T08:56:46;7.77;;;6.90;;
80936;SDS011;70395;51.382;7.074;2023-08-01T08:59:13;8.77;;;6.33;;
80936;SDS011;70395;51.382;7.074;2023-08-01T09:01:40;8.10;;;5.93;;
80936;SDS011;70395;51.382;7.074;2023-08-01T09:04:06;6.80;;;6.03;;
80936;SDS011;70395;51.382;7.074;2023-08-01T09:06:37;8.50;;;6.00;;
80936;SDS011;70395;51.382;7.074;2023-08-01T09:09:11;6.70;;;5.40;;
80936;SDS011;70395;51.382;7.074;2023-08-01T09:11:49;11.30;;;5.70;;
80936;SDS011;70395;51.382;7.074;2023-08-01T09:14:17;8.40;;;5.83;;
80936;SDS011;70395;51.382;7.074;2023-08-01T09:16:45;7.03;;;5.13;;
80936;SDS011;70395;51.382;7.074;2023-08-01T09:19:18;6.63;;;5.53;;
80936;SDS011;70395;51.382;7.074;2023-08-01T09:21:50;6.67;;;4.50;;
80936;SDS011;70395;51.382;7.074;2023-08-01T09:24:17;8.33;;;4.83;;
80936;SDS011;70395;51.382;7.074;2023-08-01T09:26:44;9.30;;;5.33;;
80936;SDS011;70395;51.382;7.074;2023-08-01T09:29:12;8.10;;;5.37;;
80936;SDS011;70395;51.382;7.074;2023-08-01T09:31:39;7.27;;;4.70;;
80936;SDS011;70395;51.382;7.074;2023-08-01T09:34:21;5.73;;;4.70;;
80936;SDS011;70395;51.382;7.074;2023-08-01T09:36:50;7.20;;;4.40;;
80936;SDS011;70395;51.382;7.074;2023-08-01T09:39:22;8.23;;;4.37;;
80936;SDS011;70395;51.382;7.074;2023-08-01T09:42:01;7.50;;;4.40;;
80936;SDS011;70395;51.382;7.074;2023-08-01T09:44:28;6.17;;;4.17;;
80936;SDS011;70395;51.382;7.074;2023-08-01T09:47:04;9.40;;;4.60;;
80936;SDS011;70395;51.382;7.074;2023-08-01T09:49:33;4.60;;;3.70;;
80936;SDS011;70395;51.382;7.074;2023-08-01T09:52:02;6.37;;;3.50;;
80936;SDS011;70395;51.382;7.074;2023-08-01T09:54:28;5.17;;;3.63;;
80936;SDS011;70395;51.382;7.074;2023-08-01T09:56:54;7.77;;;4.27;;
80936;SDS011;70395;51.382;7.074;2023-08-01T09:59:21;8.00;;;4.57;;
80936;SDS011;70395;51.382;7.074;2023-08-01T10:01:50;6.33;;;4.80;;
80936;SDS011;70395;51.382;7.074;2023-08-01T10:04:20;7.80;;;5.00;;
80936;SDS011;70395;51.382;7.074;2023-08-01T10:06:59;6.20;;;4.47;;
80936;SDS011;70395;51.382;7.074;2023-08-01T10:09:31;6.23;;;4.20;;
80936;SDS011;70395;51.382;7.074;2023-08-01T10:12:00;6.90;;;4.57;;
80936;SDS011;70395;51.382;7.074;2023-08-01T10:14:27;5.97;;;4.73;;
80936;SDS011;70395;51.382;7.074;2023-08-01T10:16:54;4.80;;;4.27;;
80936;SDS011;70395;51.382;7.074;2023-08-01T10:19:21;6.83;;;4.60;;
80936;SDS011;70395;51.382;7.074;2023-08-01T10:21:47;4.43;;;4.03;;
80936;SDS011;70395;51.382;7.074;2023-08-01T10:24:14;6.20;;;4.83;;
80936;SDS011;70395;51.382;7.074;2023-08-01T10:26:44;6.10;;;4.70;;
80936;SDS011;70395;51.382;7.074;2023-08-01T10:29:11;5.43;;;4.20;;
80936;SDS011;70395;51.382;7.074;2023-08-01T10:31:37;6.00;;;4.67;;
80936;SDS011;70395;51.382;7.074;2023-08-01T10:34:06;5.70;;;4.37;;
80936;SDS011;70395;51.382;7.074;2023-08-01T10:36:38;5.83;;;4.20;;
80936;SDS011;70395;51.382;7.074;2023-08-01T10:39:04;8.93;;;4.40;;
80936;SDS011;70395;51.382;7.074;2023-08-01T10:41:31;8.17;;;4.27;;
80936;SDS011;70395;51.382;7.074;2023-08-01T10:44:12;5.70;;;4.57;;
80936;SDS011;70395;51.382;7.074;2023-08-01T10:49:38;6.23;;;4.30;;
80936;SDS011;70395;51.382;7.074;2023-08-01T10:52:30;6.30;;;4.50;;
80936;SDS011;70395;51.382;7.074;2023-08-01T10:54:55;6.83;;;4.77;;
80936;SDS011;70395;51.382;7.074;2023-08-01T10:57:27;7.03;;;4.27;;
80936;SDS011;70395;51.382;7.074;2023-08-01T10:59:55;6.40;;;4.20;;
80936;SDS011;70395;51.382;7.074;2023-08-01T11:02:23;7.33;;;4.43;;
80936;SDS011;70395;51.382;7.074;2023-08-01T11:07:39;8.60;;;4.67;;
80936;SDS011;70395;51.382;7.074;2023-08-01T11:10:08;5.13;;;4.53;;
80936;SDS011;70395;51.382;7.074;2023-08-01T11:12:39;7.87;;;4.43;;
80936;SDS011;70395;51.382;7.074;2023-08-01T11:15:09;6.87;;;4.20;;
80936;SDS011;70395;51.382;7.074;2023-08-01T11:17:38;6.37;;;4.37;;
80936;SDS011;70395;51.382;7.074;2023-08-01T11:20:12;5.17;;;4.40;;
80936;SDS011;70395;51.382;7.074;2023-08-01T11:28:11;6.17;;;4.80;;
80936;SDS011;70395;51.382;7.074;2023-08-01T11:30:41;4.87;;;4.47;;
80936;SDS011;70395;51.382;7.074;2023-08-01T11:33:20;4.43;;;3.97;;
80936;SDS011;70395;51.382;7.074;2023-08-01T11:38:22;4.23;;;3.50;;
80936;SDS011;70395;51.382;7.074;2023-08-01T11:40:50;4.27;;;3.10;;
80936;SDS011;70395;51.382;7.074;2023-08-01T11:43:17;4.60;;;3.30;;
80936;SDS011;70395;51.382;7.074;2023-08-01T11:45:50;5.67;;;4.50;;
80936;SDS011;70395;51.382;7.074;2023-08-01T11:48:22;5.00;;;3.07;;
80936;SDS011;70395;51.382;7.074;2023-08-01T11:50:49;4.00;;;3.37;;
80936;SDS011;70395;51.382;7.074;2023-08-01T11:53:26;3.97;;;3.50;;
80936;SDS011;70395;51.382;7.074;2023-08-01T11:55:54;4.93;;;3.50;;
80936;SDS011;70395;51.382;7.074;2023-08-01T11:58:31;5.20;;;3.60;;
80936;SDS011;70395;51.382;7.074;2023-08-01T12:01:02;3.90;;;3.50;;
80936;SDS011;70395;51.382;7.074;2023-08-01T12:03:45;4.63;;;3.50;;
80936;SDS011;70395;51.382;7.074;2023-08-01T12:06:11;6.33;;;3.90;;
80936;SDS011;70395;51.382;7.074;2023-08-01T12:08:39;6.43;;;4.43;;
80936;SDS011;70395;51.382;7.074;2023-08-01T12:14:07;7.50;;;4.50;;
80936;SDS011;70395;51.382;7.074;2023-08-01T12:16:43;5.10;;;3.70;;
80936;SDS011;70395;51.382;7.074;2023-08-01T12:19:16;5.60;;;4.90;;
80936;SDS011;70395;51.382;7.074;2023-08-01T12:21:43;8.07;;;4.70;;
80936;SDS011;70395;51.382;7.074;2023-08-01T12:24:09;5.77;;;4.20;;
80936;SDS011;70395;51.382;7.074;2023-08-01T12:26:35;5.20;;;4.47;;
80936;SDS011;70395;51.382;7.074;2023-08-01T12:29:01;6.50;;;4.83;;
80936;SDS011;70395;51.382;7.074;2023-08-01T12:31:27;5.07;;;4.57;;
80936;SDS011;70395;51.382;7.074;2023-08-01T12:33:53;7.57;;;4.20;;
80936;SDS011;70395;51.382;7.074;2023-08-01T12:36:19;5.97;;;4.47;;
80936;SDS011;70395;51.382;7.074;2023-08-01T12:38:46;6.60;;;4.40;;
80936;SDS011;70395;51.382;7.074;2023-08-01T12:41:12;4.13;;;3.73;;
80936;SDS011;70395;51.382;7.074;2023-08-01T12:43:37;6.00;;;3.70;;
80936;SDS011;70395;51.382;7.074;2023-08-01T12:46:03;5.20;;;3.80;;
80936;SDS011;70395;51.382;7.074;2023-08-01T12:48:29;7.07;;;4.27;;
80936;SDS011;70395;51.382;7.074;2023-08-01T12:50:56;5.57;;;3.67;;
80936;SDS011;70395;51.382;7.074;2023-08-01T12:53:22;9.70;;;7.77;;
80936;SDS011;70395;51.382;7.074;2023-08-01T12:55:48;6.10;;;3.67;;
80936;SDS011;70395;51.382;7.074;2023-08-01T12:58:16;5.30;;;3.40;;
80936;SDS011;70395;51.382;7.074;2023-08-01T13:00:42;4.57;;;3.30;;
80936;SDS011;70395;51.382;7.074;2023-08-01T13:03:09;3.50;;;2.90;;
80936;SDS011;70395;51.382;7.074;2023-08-01T13:05:37;4.00;;;2.63;;
80936;SDS011;70395;51.382;7.074;2023-08-01T13:08:05;3.27;;;2.80;;
80936;SDS011;70395;51.382;7.074;2023-08-01T13:10:32;3.53;;;2.97;;
80936;SDS011;70395;51.382;7.074;2023-08-01T13:12:59;7.00;;;3.50;;
80936;SDS011;70395;51.382;7.074;2023-08-01T13:15:26;4.93;;;3.13;;
80936;SDS011;70395;51.382;7.074;2023-08-01T13:17:52;4.23;;;2.80;;
80936;SDS011;70395;51.382;7.074;2023-08-01T13:20:19;4.00;;;3.17;;
80936;SDS011;70395;51.382;7.074;2023-08-01T13:22:46;4.03;;;2.57;;
80936;SDS011;70395;51.382;7.074;2023-08-01T13:25:14;5.37;;;3.17;;
80936;SDS011;70395;51.382;7.074;2023-08-01T13:27:41;4.93;;;2.60;;
80936;SDS011;70395;51.382;7.074;2023-08-01T13:30:08;4.10;;;3.50;;
80936;SDS011;70395;51.382;7.074;2023-08-01T13:32:34;8.27;;;3.57;;
80936;SDS011;70395;51.382;7.074;2023-08-01T13:35:01;4.87;;;3.73;;
80936;SDS011;70395;51.382;7.074;2023-08-01T13:37:27;7.13;;;3.17;;
80936;SDS011;70395;51.382;7.074;2023-08-01T13:39:57;5.90;;;4.43;;
80936;SDS011;70395;51.382;7.074;2023-08-01T13:42:23;6.57;;;4.77;;
80936;SDS011;70395;51.382;7.074;2023-08-01T13:44:49;6.30;;;4.93;;
80936;SDS011;70395;51.382;7.074;2023-08-01T13:47:15;3.73;;;3.00;;
80936;SDS011;70395;51.382;7.074;2023-08-01T13:49:40;5.07;;;2.47;;
80936;SDS011;70395;51.382;7.074;2023-08-01T13:52:06;4.37;;;2.40;;
80936;SDS011;70395;51.382;7.074;2023-08-01T13:54:32;5.33;;;2.50;;
80936;SDS011;70395;51.382;7.074;2023-08-01T13:56:58;4.97;;;2.80;;
80936;SDS011;70395;51.382;7.074;2023-08-01T13:59:25;4.43;;;2.63;;
80936;SDS011;70395;51.382;7.074;2023-08-01T14:01:53;4.80;;;2.53;;
80936;SDS011;70395;51.382;7.074;2023-08-01T14:04:20;7.23;;;2.67;;
80936;SDS011;70395;51.382;7.074;2023-08-01T14:06:46;3.40;;;2.40;;
80936;SDS011;70395;51.382;7.074;2023-08-01T14:09:12;4.67;;;2.50;;
80936;SDS011;70395;51.382;7.074;2023-08-01T14:11:38;7.10;;;2.33;;
80936;SDS011;70395;51.382;7.074;2023-08-01T14:14:05;4.70;;;2.40;;
80936;SDS011;70395;51.382;7.074;2023-08-01T14:16:31;3.53;;;2.17;;
80936;SDS011;70395;51.382;7.074;2023-08-01T14:18:57;5.40;;;2.40;;
80936;SDS011;70395;51.382;7.074;2023-08-01T14:21:24;4.47;;;2.40;;
80936;SDS011;70395;51.382;7.074;2023-08-01T14:23:50;4.63;;;2.30;;
80936;SDS011;70395;51.382;7.074;2023-08-01T14:26:15;6.70;;;2.70;;
80936;SDS011;70395;51.382;7.074;2023-08-01T14:28:41;4.80;;;2.77;;
80936;SDS011;70395;51.382;7.074;2023-08-01T14:31:07;6.33;;;2.50;;
80936;SDS011;70395;51.382;7.074;2023-08-01T14:33:33;5.67;;;2.53;;
80936;SDS011;70395;51.382;7.074;2023-08-01T14:35:59;4.00;;;2.30;;
80936;SDS011;70395;51.382;7.074;2023-08-01T14:38:25;4.40;;;2.27;;
80936;SDS011;70395;51.382;7.074;2023-08-01T14:40:52;6.87;;;2.83;;
80936;SDS011;70395;51.382;7.074;2023-08-01T14:43:18;3.83;;;2.50;;
80936;SDS011;70395;51.382;7.074;2023-08-01T14:45:45;4.83;;;2.87;;
80936;SDS011;70395;51.382;7.074;2023-08-01T14:48:12;8.03;;;3.80;;
80936;SDS011;70395;51.382;7.074;2023-08-01T14:50:38;6.40;;;3.00;;
80936;SDS011;70395;51.382;7.074;2023-08-01T14:53:03;4.93;;;2.50;;
80936;SDS011;70395;51.382;7.074;2023-08-01T14:55:31;5.37;;;2.83;;
80936;SDS011;70395;51.382;7.074;2023-08-01T14:57:57;7.93;;;3.10;;